createdAt,value
2018-03-29T00:00:24.852Z,90.81
2018-03-29T00:01:25.029Z,91.19
2018-03-29T00:02:25.207Z,91.47
2018-03-29T00:03:25.349Z,91.47
2018-03-29T00:04:25.501Z,91.56
2018-03-29T00:05:25.662Z,91.47
2018-03-29T00:06:25.831Z,91.09
2018-03-29T00:07:26.021Z,90.62
2018-03-29T00:08:26.163Z,91.09
2018-03-29T00:09:26.336Z,91.09
2018-03-29T00:10:26.543Z,90.95
2018-03-29T00:11:26.689Z,90.62
2018-03-29T00:12:26.860Z,90.24
2018-03-29T00:13:27.004Z,91.66
2018-03-29T00:14:27.181Z,91.19
2018-03-29T00:15:27.332Z,91.38
2018-03-29T00:16:27.501Z,90.52
2018-03-29T00:17:27.672Z,89.76
2018-03-29T00:18:27.868Z,90.05
2018-03-29T00:19:28.040Z,90.52
2018-03-29T00:20:28.226Z,90.05
2018-03-29T00:21:28.358Z,90.33
2018-03-29T00:22:28.528Z,89.86
2018-03-29T00:23:28.712Z,89.67
2018-03-29T00:24:28.894Z,90.62
2018-03-29T00:25:29.052Z,90.52
2018-03-29T00:26:29.239Z,90.66
2018-03-29T00:27:29.368Z,90.43
2018-03-29T00:28:29.555Z,90.33
2018-03-29T00:29:29.704Z,90.28
2018-03-29T00:30:29.877Z,90.43
2018-03-29T00:31:30.043Z,90.05
2018-03-29T00:32:30.231Z,89.86
2018-03-29T00:33:30.391Z,89.76
2018-03-29T00:34:30.545Z,90.24
2018-03-29T00:35:30.739Z,89.95
2018-03-29T00:36:30.918Z,89.00
2018-03-29T00:37:31.057Z,89.29
2018-03-29T00:38:31.239Z,88.72
2018-03-29T00:39:31.383Z,88.72
2018-03-29T00:40:31.587Z,88.91
2018-03-29T00:41:31.743Z,89.20
2018-03-29T00:42:31.894Z,88.91
2018-03-29T00:43:32.110Z,88.72
2018-03-29T00:44:32.238Z,88.43
2018-03-29T00:45:32.416Z,88.72
2018-03-29T00:46:32.611Z,88.91
2018-03-29T00:47:32.774Z,88.81
2018-03-29T00:48:32.962Z,88.72
2018-03-29T00:49:33.096Z,88.91
2018-03-29T00:50:33.296Z,88.62
2018-03-29T00:51:33.468Z,88.34
2018-03-29T00:52:33.630Z,88.62
2018-03-29T00:53:33.786Z,88.15
2018-03-29T00:54:33.997Z,88.62
2018-03-29T00:55:34.144Z,88.06
2018-03-29T00:56:34.299Z,87.77
2018-03-29T00:57:34.465Z,87.96
2018-03-29T00:58:34.652Z,87.39
2018-03-29T00:59:34.815Z,87.20
2018-03-29T01:00:34.989Z,87.39
2018-03-29T01:01:35.147Z,87.96
2018-03-29T01:02:35.321Z,87.30
2018-03-29T01:03:35.494Z,87.96
2018-03-29T01:04:35.905Z,88.43
2018-03-29T01:05:35.833Z,87.77
2018-03-29T01:06:35.993Z,87.01
2018-03-29T01:07:36.181Z,87.39
2018-03-29T01:08:36.333Z,87.01
2018-03-29T01:09:36.484Z,87.58
2018-03-29T01:10:36.662Z,88.06
2018-03-29T01:11:36.835Z,88.43
2018-03-29T01:12:36.978Z,87.87
2018-03-29T01:13:37.163Z,87.77
2018-03-29T01:14:37.306Z,87.58
2018-03-29T01:15:37.460Z,88.24
2018-03-29T01:16:37.641Z,87.58
2018-03-29T01:17:37.811Z,87.96
2018-03-29T01:18:37.982Z,87.58
2018-03-29T01:19:38.161Z,87.77
2018-03-29T01:20:38.324Z,87.58
2018-03-29T01:21:38.496Z,87.77
2018-03-29T01:22:38.653Z,88.43
2018-03-29T01:23:38.832Z,88.20
2018-03-29T01:24:39.020Z,89.29
2018-03-29T01:25:39.182Z,88.68
2018-03-29T01:26:39.342Z,89.20
2018-03-29T01:27:39.517Z,88.62
2018-03-29T01:28:39.678Z,88.87
2018-03-29T01:29:39.846Z,88.77
2018-03-29T01:30:39.997Z,88.87
2018-03-29T01:31:41.032Z,89.00
2018-03-29T01:32:40.361Z,89.10
2018-03-29T01:33:40.517Z,89.10
2018-03-29T01:34:40.698Z,89.00
2018-03-29T01:35:40.856Z,88.43
2018-03-29T01:36:41.028Z,88.43
2018-03-29T01:37:41.181Z,87.58
2018-03-29T01:38:41.349Z,88.06
2018-03-29T01:39:41.512Z,88.53
2018-03-29T01:40:41.933Z,88.34
2018-03-29T01:41:41.840Z,88.34
2018-03-29T01:42:42.012Z,88.87
2018-03-29T01:43:42.182Z,89.25
2018-03-29T01:44:42.362Z,88.87
2018-03-29T01:45:42.528Z,89.34
2018-03-29T01:46:42.696Z,89.81
2018-03-29T01:47:42.880Z,89.25
2018-03-29T01:48:43.053Z,88.68
2018-03-29T01:49:43.209Z,88.77
2018-03-29T01:50:43.372Z,88.96
2018-03-29T01:51:43.541Z,89.25
2018-03-29T01:52:43.734Z,89.06
2018-03-29T01:53:43.911Z,88.58
2018-03-29T01:54:44.084Z,88.68
2018-03-29T01:55:44.254Z,88.20
2018-03-29T01:56:44.417Z,88.39
2018-03-29T01:57:44.590Z,88.58
2018-03-29T01:58:44.759Z,88.77
2018-03-29T01:59:44.928Z,89.06
2018-03-29T02:00:45.119Z,89.15
2018-03-29T02:01:45.281Z,89.06
2018-03-29T02:02:45.467Z,89.15
2018-03-29T02:03:45.626Z,89.25
2018-03-29T02:04:45.802Z,88.20
2018-03-29T02:05:45.974Z,88.39
2018-03-29T02:06:46.153Z,88.20
2018-03-29T02:07:46.349Z,88.29
2018-03-29T02:08:46.483Z,88.01
2018-03-29T02:09:46.671Z,87.82
2018-03-29T02:10:46.879Z,87.92
2018-03-29T02:11:47.014Z,87.92
2018-03-29T02:12:47.183Z,87.63
2018-03-29T02:13:47.364Z,87.63
2018-03-29T02:14:47.512Z,88.01
2018-03-29T02:15:47.679Z,88.20
2018-03-29T02:16:47.858Z,88.68
2018-03-29T02:17:48.030Z,88.20
2018-03-29T02:18:48.199Z,89.15
2018-03-29T02:19:48.355Z,87.73
2018-03-29T02:20:48.501Z,87.82
2018-03-29T02:21:48.679Z,87.73
2018-03-29T02:22:48.856Z,88.58
2018-03-29T02:23:49.035Z,88.48
2018-03-29T02:24:49.178Z,88.68
2018-03-29T02:25:49.342Z,88.29
2018-03-29T02:26:49.506Z,87.92
2018-03-29T02:27:49.680Z,87.54
2018-03-29T02:28:49.838Z,88.01
2018-03-29T02:29:50.012Z,87.54
2018-03-29T02:30:50.186Z,88.48
2018-03-29T02:31:50.350Z,88.39
2018-03-29T02:32:50.529Z,87.63
2018-03-29T02:33:50.698Z,88.01
2018-03-29T02:34:50.852Z,88.39
2018-03-29T02:35:51.018Z,88.10
2018-03-29T02:36:51.158Z,88.29
2018-03-29T02:37:51.323Z,88.10
2018-03-29T02:38:51.487Z,87.73
2018-03-29T02:39:51.640Z,88.01
2018-03-29T02:40:51.818Z,87.92
2018-03-29T02:41:51.990Z,87.63
2018-03-29T02:42:52.148Z,87.63
2018-03-29T02:43:52.326Z,88.39
2018-03-29T02:44:52.530Z,88.29
2018-03-29T02:45:52.648Z,87.73
2018-03-29T02:46:52.831Z,88.01
2018-03-29T02:47:53.000Z,87.73
2018-03-29T02:48:53.407Z,87.82
2018-03-29T02:49:53.336Z,88.29
2018-03-29T02:50:53.513Z,87.92
2018-03-29T02:51:53.671Z,87.92
2018-03-29T02:52:53.830Z,87.63
2018-03-29T02:53:54.004Z,87.82
2018-03-29T02:54:54.173Z,87.82
2018-03-29T02:55:54.358Z,87.92
2018-03-29T02:56:54.520Z,87.92
2018-03-29T02:57:54.660Z,88.10
2018-03-29T02:58:54.843Z,88.01
2018-03-29T02:59:55.016Z,88.10
2018-03-29T03:00:55.162Z,87.45
2018-03-29T03:01:55.574Z,87.45
2018-03-29T03:02:55.480Z,88.10
2018-03-29T03:03:55.661Z,87.45
2018-03-29T03:05:55.973Z,88.82
2018-03-29T03:06:56.134Z,88.44
2018-03-29T03:07:56.320Z,88.25
2018-03-29T03:08:56.468Z,88.25
2018-03-29T03:09:56.615Z,88.06
2018-03-29T03:10:56.783Z,87.49
2018-03-29T03:11:56.969Z,87.68
2018-03-29T03:12:57.121Z,88.16
2018-03-29T03:13:57.289Z,88.25
2018-03-29T03:14:57.454Z,88.82
2018-03-29T03:15:57.629Z,88.35
2018-03-29T03:16:57.782Z,88.25
2018-03-29T03:17:57.969Z,88.25
2018-03-29T03:18:58.129Z,88.82
2018-03-29T03:19:58.306Z,89.01
2018-03-29T03:20:58.474Z,89.01
2018-03-29T03:21:58.614Z,89.96
2018-03-29T03:22:58.769Z,89.96
2018-03-29T03:23:58.942Z,89.77
2018-03-29T03:24:59.114Z,90.24
2018-03-29T03:25:59.286Z,90.72
2018-03-29T03:26:59.474Z,90.34
2018-03-29T03:27:59.638Z,90.15
2018-03-29T03:28:59.804Z,89.96
2018-03-29T03:29:59.969Z,90.05
2018-03-29T03:31:00.422Z,90.15
2018-03-29T03:32:00.314Z,90.15
2018-03-29T03:33:00.455Z,89.29
2018-03-29T03:34:00.618Z,89.86
2018-03-29T03:35:00.790Z,89.39
2018-03-29T03:36:00.939Z,89.77
2018-03-29T03:37:01.130Z,89.77
2018-03-29T03:38:01.300Z,89.01
2018-03-29T03:39:01.450Z,89.01
2018-03-29T03:40:01.618Z,88.82
2018-03-29T03:41:01.799Z,89.48
2018-03-29T03:42:01.946Z,89.48
2018-03-29T03:43:02.115Z,89.48
2018-03-29T03:44:02.267Z,89.96
2018-03-29T03:45:02.437Z,89.48
2018-03-29T03:46:02.602Z,89.29
2018-03-29T03:47:02.754Z,89.48
2018-03-29T03:48:02.920Z,89.48
2018-03-29T03:49:03.087Z,90.24
2018-03-29T03:50:03.245Z,90.43
2018-03-29T03:51:03.411Z,90.24
2018-03-29T03:52:03.556Z,90.34
2018-03-29T03:53:03.967Z,90.24
2018-03-29T03:54:03.882Z,89.58
2018-03-29T03:55:04.056Z,90.15
2018-03-29T03:56:04.200Z,89.96
2018-03-29T03:57:04.363Z,89.29
2018-03-29T03:58:04.538Z,89.77
2018-03-29T03:59:04.716Z,90.05
2018-03-29T04:00:04.918Z,89.67
2018-03-29T04:01:05.033Z,89.77
2018-03-29T04:02:05.202Z,89.67
2018-03-29T04:03:05.463Z,89.58
2018-03-29T04:04:05.521Z,89.20
2018-03-29T04:05:05.699Z,89.01
2018-03-29T04:06:05.868Z,88.92
2018-03-29T04:07:06.063Z,89.96
2018-03-29T04:08:06.219Z,89.20
2018-03-29T04:09:06.400Z,89.48
2018-03-29T04:10:06.803Z,89.58
2018-03-29T04:11:06.725Z,88.92
2018-03-29T04:12:06.869Z,89.96
2018-03-29T04:13:07.049Z,89.48
2018-03-29T04:14:07.199Z,89.39
2018-03-29T04:15:07.366Z,89.20
2018-03-29T04:16:07.810Z,89.48
2018-03-29T04:17:07.701Z,88.92
2018-03-29T04:18:07.889Z,88.82
2018-03-29T04:19:08.040Z,88.82
2018-03-29T04:20:08.212Z,89.11
2018-03-29T04:21:08.370Z,89.20
2018-03-29T04:22:08.542Z,89.20
2018-03-29T04:23:08.757Z,89.11
2018-03-29T04:24:08.883Z,89.20
2018-03-29T04:25:09.095Z,88.92
2018-03-29T04:26:10.104Z,88.63
2018-03-29T04:27:09.403Z,88.54
2018-03-29T04:28:09.593Z,88.44
2018-03-29T04:29:10.130Z,89.01
2018-03-29T04:30:09.912Z,88.82
2018-03-29T04:31:10.074Z,88.73
2018-03-29T04:32:10.248Z,88.92
2018-03-29T04:33:10.418Z,88.63
2018-03-29T04:34:10.584Z,88.44
2018-03-29T04:35:10.809Z,89.01
2018-03-29T04:36:11.633Z,88.35
2018-03-29T04:37:11.041Z,88.44
2018-03-29T04:38:11.283Z,88.54
2018-03-29T04:39:11.378Z,88.44
2018-03-29T04:40:11.552Z,87.97
2018-03-29T04:41:11.738Z,88.16
2018-03-29T04:42:11.933Z,88.54
2018-03-29T04:43:12.105Z,88.63
2018-03-29T04:44:12.252Z,88.25
2018-03-29T04:45:12.420Z,87.59
2018-03-29T04:46:12.578Z,87.59
2018-03-29T04:47:12.738Z,87.59
2018-03-29T04:48:12.909Z,88.54
2018-03-29T04:49:13.129Z,88.35
2018-03-29T04:50:13.250Z,88.44
2018-03-29T04:51:13.394Z,89.01
2018-03-29T04:52:13.558Z,88.63
2018-03-29T04:53:13.757Z,88.73
2018-03-29T04:54:13.880Z,88.54
2018-03-29T04:55:14.075Z,88.35
2018-03-29T04:56:14.221Z,87.59
2018-03-29T04:57:14.388Z,87.68
2018-03-29T04:58:14.551Z,87.68
2018-03-29T04:59:14.728Z,87.59
2018-03-29T05:00:14.875Z,88.25
2018-03-29T05:01:15.065Z,88.35
2018-03-29T05:02:15.261Z,88.54
2018-03-29T05:03:15.402Z,88.35
2018-03-29T05:04:15.547Z,88.54
2018-03-29T05:05:15.728Z,89.01
2018-03-29T05:06:15.896Z,88.82
2018-03-29T05:07:16.058Z,88.73
2018-03-29T05:08:16.224Z,89.29
2018-03-29T05:09:16.393Z,89.01
2018-03-29T05:10:16.566Z,89.20
2018-03-29T05:11:16.781Z,88.73
2018-03-29T05:12:24.528Z,89.11
2018-03-29T05:13:17.068Z,88.92
2018-03-29T05:14:17.249Z,89.01
2018-03-29T05:15:17.416Z,88.82
2018-03-29T05:16:17.574Z,88.92
2018-03-29T05:17:17.747Z,89.39
2018-03-29T05:18:17.925Z,89.39
2018-03-29T05:19:18.122Z,88.92
2018-03-29T05:20:18.276Z,89.01
2018-03-29T05:21:18.461Z,88.63
2018-03-29T05:22:18.636Z,88.92
2018-03-29T05:23:18.786Z,88.44
2018-03-29T05:24:18.976Z,88.73
2018-03-29T05:25:19.125Z,88.92
2018-03-29T05:26:19.294Z,88.63
2018-03-29T05:27:19.467Z,88.73
2018-03-29T05:28:19.632Z,88.92
2018-03-29T05:29:19.821Z,88.82
2018-03-29T05:30:19.992Z,88.73
2018-03-29T05:31:20.175Z,88.44
2018-03-29T05:32:20.349Z,88.44
2018-03-29T05:33:20.524Z,88.82
2018-03-29T05:34:20.699Z,88.63
2018-03-29T05:35:20.860Z,88.92
2018-03-29T05:36:21.031Z,88.73
2018-03-29T05:37:21.210Z,89.20
2018-03-29T05:38:21.372Z,88.92
2018-03-29T05:39:21.545Z,89.77
2018-03-29T05:40:21.732Z,89.11
2018-03-29T05:41:21.915Z,88.54
2018-03-29T05:42:22.075Z,88.73
2018-03-29T05:43:22.273Z,88.63
2018-03-29T05:44:22.431Z,89.01
2018-03-29T05:45:22.605Z,88.20
2018-03-29T05:46:22.787Z,87.73
2018-03-29T05:47:22.957Z,88.20
2018-03-29T05:48:23.131Z,87.54
2018-03-29T05:49:23.313Z,87.35
2018-03-29T05:50:23.485Z,86.59
2018-03-29T05:51:23.653Z,85.97
2018-03-29T05:52:23.899Z,84.64
2018-03-29T05:53:24.006Z,84.74
2018-03-29T05:54:24.192Z,84.88
2018-03-29T05:55:24.360Z,85.64
2018-03-29T05:56:24.540Z,85.55
2018-03-29T05:57:24.725Z,85.78
2018-03-29T05:58:24.890Z,85.45
2018-03-29T05:59:25.069Z,85.64
2018-03-29T06:00:25.273Z,86.02
2018-03-29T06:01:26.193Z,86.02
2018-03-29T06:02:25.598Z,85.83
2018-03-29T06:03:25.802Z,86.59
2018-03-29T06:04:25.961Z,86.59
2018-03-29T06:05:26.129Z,86.78
2018-03-29T06:06:26.327Z,86.97
2018-03-29T06:07:26.485Z,86.21
2018-03-29T06:08:26.653Z,86.40
2018-03-29T06:09:26.826Z,86.59
2018-03-29T06:10:27.001Z,86.40
2018-03-29T06:11:27.180Z,86.02
2018-03-29T06:12:27.354Z,85.40
2018-03-29T06:13:27.527Z,85.02
2018-03-29T06:14:27.706Z,84.55
2018-03-29T06:15:27.883Z,84.17
2018-03-29T06:16:28.063Z,84.26
2018-03-29T06:17:28.243Z,84.07
2018-03-29T06:18:28.435Z,85.11
2018-03-29T06:19:28.595Z,84.26
2018-03-29T06:20:28.777Z,85.11
2018-03-29T06:21:28.942Z,84.45
2018-03-29T06:22:29.121Z,83.59
2018-03-29T06:23:29.304Z,84.45
2018-03-29T06:25:29.662Z,84.59
2018-03-29T06:26:29.845Z,84.55
2018-03-29T06:27:30.023Z,84.55
2018-03-29T06:28:30.201Z,83.40
2018-03-29T06:29:30.379Z,82.55
2018-03-29T06:30:30.557Z,82.08
2018-03-29T06:31:30.738Z,83.03
2018-03-29T06:32:30.918Z,83.12
2018-03-29T06:33:31.092Z,82.93
2018-03-29T06:34:31.277Z,83.12
2018-03-29T06:35:31.494Z,82.36
2018-03-29T06:36:31.640Z,83.59
2018-03-29T06:37:31.820Z,83.59
2018-03-29T06:38:32.007Z,83.69
2018-03-29T06:39:32.174Z,83.22
2018-03-29T06:40:32.355Z,82.36
2018-03-29T06:41:32.535Z,82.17
2018-03-29T06:42:32.711Z,82.17
2018-03-29T06:43:32.891Z,82.55
2018-03-29T06:44:33.072Z,82.93
2018-03-29T06:45:33.252Z,82.93
2018-03-29T06:46:33.457Z,82.36
2018-03-29T06:47:33.640Z,82.27
2018-03-29T06:48:33.823Z,82.93
2018-03-29T06:49:34.001Z,83.03
2018-03-29T06:50:34.199Z,83.22
2018-03-29T06:51:34.340Z,82.84
2018-03-29T06:52:34.564Z,83.50
2018-03-29T06:53:34.685Z,84.07
2018-03-29T06:54:34.861Z,83.40
2018-03-29T06:55:35.048Z,83.69
2018-03-29T06:56:35.205Z,83.74
2018-03-29T06:57:35.395Z,83.65
2018-03-29T06:58:36.169Z,84.22
2018-03-29T06:59:35.729Z,85.07
2018-03-29T07:00:35.900Z,84.41
2018-03-29T07:01:36.081Z,84.36
2018-03-29T07:02:36.250Z,84.69
2018-03-29T07:03:37.137Z,85.21
2018-03-29T07:04:36.576Z,84.92
2018-03-29T07:05:36.761Z,84.36
2018-03-29T07:06:36.935Z,84.36
2018-03-29T07:07:37.107Z,84.92
2018-03-29T07:08:37.264Z,84.74
2018-03-29T07:09:37.434Z,85.11
2018-03-29T07:10:37.618Z,84.64
2018-03-29T07:12:37.999Z,84.07
2018-03-29T07:13:38.189Z,84.36
2018-03-29T07:14:38.359Z,83.69
2018-03-29T07:15:38.549Z,83.69
2018-03-29T07:16:38.723Z,83.88
2018-03-29T07:17:38.887Z,83.22
2018-03-29T07:18:39.064Z,82.65
2018-03-29T07:19:39.245Z,82.65
2018-03-29T07:20:39.413Z,82.31
2018-03-29T07:21:39.675Z,82.50
2018-03-29T07:22:39.775Z,83.16
2018-03-29T07:23:39.962Z,82.17
2018-03-29T07:24:40.106Z,81.60
2018-03-29T07:25:40.268Z,81.13
2018-03-29T07:26:40.434Z,81.60
2018-03-29T07:27:40.605Z,80.79
2018-03-29T07:28:40.806Z,81.45
2018-03-29T07:29:40.945Z,80.60
2018-03-29T07:30:41.143Z,80.51
2018-03-29T07:31:41.282Z,79.94
2018-03-29T07:32:41.532Z,80.13
2018-03-29T07:33:41.663Z,80.60
2018-03-29T07:34:41.832Z,80.22
2018-03-29T07:35:41.987Z,79.08
2018-03-29T07:36:42.157Z,79.12
2018-03-29T07:37:42.350Z,79.03
2018-03-29T07:38:42.510Z,78.83
2018-03-29T07:39:42.687Z,78.08
2018-03-29T07:40:43.169Z,78.27
2018-03-29T07:41:43.056Z,78.55
2018-03-29T07:42:43.187Z,78.27
2018-03-29T07:43:43.360Z,78.27
2018-03-29T07:45:43.741Z,78.74
2018-03-29T07:46:43.913Z,78.45
2018-03-29T07:47:44.091Z,78.08
2018-03-29T07:48:44.273Z,77.60
2018-03-29T07:49:44.418Z,77.70
2018-03-29T07:50:44.580Z,77.22
2018-03-29T07:51:44.800Z,77.70
2018-03-29T07:52:44.929Z,77.89
2018-03-29T07:53:45.102Z,77.60
2018-03-29T07:54:45.345Z,76.93
2018-03-29T07:55:45.455Z,77.03
2018-03-29T07:56:45.658Z,77.12
2018-03-29T07:57:45.823Z,75.79
2018-03-29T07:58:46.003Z,76.08
2018-03-29T07:59:46.182Z,76.37
2018-03-29T08:00:46.339Z,76.03
2018-03-29T08:01:46.523Z,76.21
2018-03-29T08:02:46.701Z,74.98
2018-03-29T08:03:46.849Z,74.63
2018-03-29T08:04:47.054Z,72.49
2018-03-29T08:05:47.216Z,72.07
2018-03-29T08:06:47.378Z,72.20
2018-03-29T08:10:19.835Z,67.86
2018-03-29T08:11:20.401Z,67.32
2018-03-29T08:12:20.200Z,66.11
2018-03-29T08:13:20.369Z,65.73
2018-03-29T08:14:21.298Z,64.84
2018-03-29T08:15:20.763Z,65.55
2018-03-29T08:16:20.936Z,65.26
2018-03-29T08:17:21.090Z,65.38
2018-03-29T08:18:21.269Z,66.02
2018-03-29T08:19:21.428Z,68.17
2018-03-29T08:20:21.602Z,68.07
2018-03-29T08:21:21.875Z,68.17
2018-03-29T08:22:21.956Z,67.73
2018-03-29T08:23:22.159Z,67.16
2018-03-29T08:24:22.302Z,67.35
2018-03-29T08:25:22.481Z,67.35
2018-03-29T08:26:22.661Z,67.35
2018-03-29T08:27:22.883Z,68.11
2018-03-29T08:28:23.054Z,67.63
2018-03-29T08:29:23.244Z,67.54
2018-03-29T08:30:23.458Z,68.11
2018-03-29T08:31:23.613Z,68.36
2018-03-29T08:32:23.782Z,68.55
2018-03-29T08:33:23.963Z,68.68
2018-03-29T08:34:24.131Z,67.32
2018-03-29T08:35:24.331Z,66.08
2018-03-29T08:36:24.500Z,65.99
2018-03-29T08:37:24.679Z,66.27
2018-03-29T08:38:24.866Z,66.27
2018-03-29T08:39:25.059Z,66.05
2018-03-29T08:40:25.214Z,66.90
2018-03-29T08:42:25.586Z,66.17
2018-03-29T08:43:25.720Z,66.27
2018-03-29T08:44:25.919Z,66.84
2018-03-29T08:45:26.076Z,67.03
2018-03-29T08:46:26.245Z,66.42
2018-03-29T08:47:26.499Z,66.71
2018-03-29T08:48:26.625Z,67.00
2018-03-29T08:49:26.787Z,67.00
2018-03-29T08:50:26.933Z,67.66
2018-03-29T08:51:27.117Z,67.32
2018-03-29T08:52:27.281Z,67.22
2018-03-29T08:53:27.449Z,67.69
2018-03-29T08:54:27.625Z,67.32
2018-03-29T08:55:27.790Z,66.20
2018-03-29T08:56:27.993Z,66.94
2018-03-29T08:57:28.127Z,66.84
2018-03-29T08:58:28.300Z,67.22
2018-03-29T08:59:28.484Z,67.41
2018-03-29T09:00:28.659Z,67.22
2018-03-29T09:01:28.863Z,67.13
2018-03-29T09:02:29.042Z,66.65
2018-03-29T09:03:29.242Z,66.30
2018-03-29T09:04:29.365Z,66.20
2018-03-29T09:05:29.552Z,65.54
2018-03-29T09:06:29.701Z,65.83
2018-03-29T09:07:29.877Z,65.13
2018-03-29T09:08:30.040Z,66.90
2018-03-29T09:09:30.282Z,67.76
2018-03-29T09:10:30.374Z,67.03
2018-03-29T09:11:30.597Z,67.28
2018-03-29T09:12:30.747Z,66.42
2018-03-29T09:13:30.925Z,67.28
2018-03-29T09:14:31.070Z,67.00
2018-03-29T09:15:31.246Z,67.00
2018-03-29T09:16:31.429Z,66.84
2018-03-29T09:17:31.610Z,66.74
2018-03-29T09:18:31.750Z,66.90
2018-03-29T09:19:32.006Z,66.42
2018-03-29T09:20:32.090Z,66.52
2018-03-29T09:21:32.274Z,66.84
2018-03-29T09:22:32.423Z,65.99
2018-03-29T09:23:32.581Z,65.99
2018-03-29T09:24:32.761Z,66.65
2018-03-29T09:25:32.933Z,65.99
2018-03-29T09:26:33.107Z,66.08
2018-03-29T09:27:33.309Z,66.27
2018-03-29T09:28:33.455Z,67.32
2018-03-29T09:29:33.620Z,67.03
2018-03-29T09:30:33.787Z,67.22
2018-03-29T09:31:33.958Z,66.84
2018-03-29T09:32:34.154Z,66.74
2018-03-29T09:33:34.309Z,67.03
2018-03-29T09:34:34.487Z,67.41
2018-03-29T09:35:34.670Z,68.17
2018-03-29T09:36:34.852Z,67.50
2018-03-29T09:37:35.035Z,67.41
2018-03-29T09:38:35.202Z,66.97
2018-03-29T09:39:35.387Z,66.30
2018-03-29T09:40:35.571Z,65.80
2018-03-29T09:41:35.744Z,65.99
2018-03-29T09:42:35.928Z,65.89
2018-03-29T09:43:36.108Z,66.11
2018-03-29T09:44:36.279Z,65.99
2018-03-29T09:45:36.405Z,66.36
2018-03-29T09:46:36.615Z,66.02
2018-03-29T09:47:36.768Z,65.45
2018-03-29T09:48:36.964Z,65.45
2018-03-29T09:49:37.140Z,64.78
2018-03-29T09:50:37.309Z,65.64
2018-03-29T09:51:37.451Z,65.83
2018-03-29T09:52:37.667Z,65.25
2018-03-29T09:53:37.779Z,65.54
2018-03-29T09:54:38.006Z,65.45
2018-03-29T09:55:38.106Z,66.11
2018-03-29T09:56:38.303Z,66.53
2018-03-29T09:57:38.457Z,64.05
2018-03-29T09:58:38.630Z,63.10
2018-03-29T09:59:38.886Z,63.29
2018-03-29T10:00:38.987Z,63.48
2018-03-29T10:01:39.179Z,63.01
2018-03-29T10:02:39.369Z,63.17
2018-03-29T10:03:39.533Z,62.21
2018-03-29T10:04:39.769Z,62.21
2018-03-29T10:05:39.971Z,63.45
2018-03-29T10:06:40.174Z,63.64
2018-03-29T10:07:40.322Z,65.51
2018-03-29T10:08:40.503Z,66.20
2018-03-29T10:09:40.701Z,65.73
2018-03-29T10:10:40.864Z,63.96
2018-03-29T10:11:41.061Z,63.96
2018-03-29T10:12:41.247Z,63.96
2018-03-29T10:13:41.426Z,63.83
2018-03-29T10:14:41.590Z,64.40
2018-03-29T10:15:41.774Z,64.02
2018-03-29T10:16:41.930Z,64.31
2018-03-29T10:17:42.100Z,65.73
2018-03-29T10:18:42.281Z,65.35
2018-03-29T10:19:42.457Z,65.54
2018-03-29T10:20:42.605Z,65.64
2018-03-29T10:21:42.772Z,65.83
2018-03-29T10:22:42.962Z,65.45
2018-03-29T10:23:43.144Z,65.83
2018-03-29T10:24:43.310Z,65.35
2018-03-29T10:25:43.495Z,65.64
2018-03-29T10:26:43.670Z,65.73
2018-03-29T10:27:43.855Z,66.02
2018-03-29T10:28:44.043Z,65.25
2018-03-29T10:29:44.982Z,64.78
2018-03-29T10:30:44.381Z,64.40
2018-03-29T10:31:44.548Z,64.50
2018-03-29T10:32:44.701Z,64.50
2018-03-29T10:33:44.918Z,64.69
2018-03-29T10:34:45.145Z,63.83
2018-03-29T10:35:45.315Z,62.24
2018-03-29T10:36:45.443Z,62.15
2018-03-29T10:37:45.636Z,61.80
2018-03-29T10:38:45.820Z,60.11
2018-03-29T10:39:45.975Z,59.99
2018-03-29T10:40:46.122Z,59.99
2018-03-29T10:41:46.295Z,60.27
2018-03-29T10:42:46.477Z,60.27
2018-03-29T10:43:46.666Z,60.37
2018-03-29T10:44:46.825Z,60.94
2018-03-29T10:45:47.013Z,61.29
2018-03-29T10:46:47.162Z,62.15
2018-03-29T10:47:47.340Z,61.77
2018-03-29T10:48:47.569Z,62.18
2018-03-29T10:49:47.798Z,61.19
2018-03-29T10:50:47.839Z,61.38
2018-03-29T10:51:48.323Z,61.38
2018-03-29T10:52:48.215Z,62.15
2018-03-29T10:53:48.373Z,62.43
2018-03-29T10:54:48.583Z,62.81
2018-03-29T10:55:48.761Z,62.24
2018-03-29T10:56:48.950Z,62.43
2018-03-29T10:57:49.114Z,62.49
2018-03-29T10:58:49.361Z,62.69
2018-03-29T10:59:49.519Z,63.35
2018-03-29T11:00:49.698Z,63.45
2018-03-29T11:02:50.093Z,63.64
2018-03-29T11:03:50.252Z,63.54
2018-03-29T11:04:51.346Z,63.73
2018-03-29T11:05:51.350Z,63.92
2018-03-29T11:06:50.850Z,63.35
2018-03-29T11:07:50.962Z,63.45
2018-03-29T11:08:51.471Z,63.92
2018-03-29T11:09:51.328Z,63.92
2018-03-29T11:10:51.516Z,63.92
2018-03-29T11:11:51.737Z,64.78
2018-03-29T11:12:51.846Z,65.45
2018-03-29T11:13:52.010Z,65.92
2018-03-29T11:14:52.219Z,66.84
2018-03-29T11:15:52.363Z,67.13
2018-03-29T11:16:52.566Z,66.68
2018-03-29T11:17:52.750Z,66.39
2018-03-29T11:18:52.894Z,65.89
2018-03-29T11:19:53.092Z,66.30
2018-03-29T11:20:53.237Z,66.20
2018-03-29T11:21:53.435Z,66.59
2018-03-29T11:22:53.610Z,66.87
2018-03-29T11:23:53.797Z,66.97
2018-03-29T11:24:53.972Z,67.16
2018-03-29T11:25:54.139Z,68.30
2018-03-29T11:26:54.338Z,68.21
2018-03-29T11:27:54.516Z,69.44
2018-03-29T11:28:54.713Z,68.87
2018-03-29T11:29:54.875Z,69.02
2018-03-29T11:30:55.029Z,69.35
2018-03-29T11:31:55.213Z,69.54
2018-03-29T11:32:55.387Z,69.60
2018-03-29T11:33:55.626Z,69.25
2018-03-29T11:34:55.750Z,69.92
2018-03-29T11:35:55.939Z,70.20
2018-03-29T11:36:57.505Z,69.73
2018-03-29T11:37:56.317Z,69.25
2018-03-29T11:38:56.481Z,68.59
2018-03-29T11:39:56.621Z,69.35
2018-03-29T11:40:56.819Z,69.44
2018-03-29T11:41:56.999Z,69.35
2018-03-29T11:42:57.120Z,69.15
2018-03-29T11:43:57.315Z,69.73
2018-03-29T11:44:57.481Z,70.10
2018-03-29T11:46:04.672Z,69.10
2018-03-29T11:46:57.883Z,68.11
2018-03-29T11:47:58.037Z,67.47
2018-03-29T11:48:58.214Z,67.67
2018-03-29T11:49:58.397Z,67.19
2018-03-29T11:50:59.601Z,67.35
2018-03-29T11:51:58.820Z,67.44
2018-03-29T11:52:59.063Z,66.97
2018-03-29T11:53:59.226Z,67.25
2018-03-29T11:54:59.341Z,67.35
2018-03-29T11:55:59.507Z,66.87
2018-03-29T11:56:59.681Z,66.11
2018-03-29T11:57:59.852Z,65.64
2018-03-29T12:00:00.198Z,65.38
2018-03-29T12:01:00.339Z,64.87
2018-03-29T12:02:00.522Z,65.54
2018-03-29T12:03:00.705Z,66.02
2018-03-29T12:04:00.875Z,67.07
2018-03-29T12:05:01.069Z,68.11
2018-03-29T12:06:01.228Z,67.88
2018-03-29T12:07:01.419Z,68.96
2018-03-29T12:08:01.600Z,68.96
2018-03-29T12:09:01.812Z,68.87
2018-03-29T12:10:01.941Z,68.11
2018-03-29T12:11:02.101Z,67.63
2018-03-29T12:12:02.275Z,67.19
2018-03-29T12:13:02.449Z,66.91
2018-03-29T12:14:02.630Z,66.24
2018-03-29T12:15:02.836Z,65.86
2018-03-29T12:16:02.986Z,66.08
2018-03-29T12:17:03.195Z,66.05
2018-03-29T12:18:03.379Z,65.38
2018-03-29T12:19:03.545Z,65.38
2018-03-29T12:20:03.691Z,65.48
2018-03-29T12:21:03.881Z,65.77
2018-03-29T12:22:04.050Z,66.08
2018-03-29T12:23:04.228Z,65.42
2018-03-29T12:24:04.407Z,66.05
2018-03-29T12:25:04.666Z,67.10
2018-03-29T12:26:04.777Z,64.90
2018-03-29T12:27:04.973Z,64.43
2018-03-29T12:30:37.396Z,63.67
2018-03-29T12:31:37.568Z,64.37
2018-03-29T12:32:37.736Z,64.47
2018-03-29T12:33:37.923Z,62.46
2018-03-29T12:34:38.868Z,62.37
2018-03-29T12:35:38.357Z,62.43
2018-03-29T12:36:38.527Z,62.72
2018-03-29T12:37:38.711Z,61.80
2018-03-29T12:38:38.870Z,61.90
2018-03-29T12:39:39.129Z,61.80
2018-03-29T12:40:39.222Z,60.30
2018-03-29T12:41:39.402Z,60.08
2018-03-29T12:42:39.834Z,60.40
2018-03-29T12:43:39.756Z,59.89
2018-03-29T12:44:39.973Z,58.94
2018-03-29T12:45:40.145Z,58.28
2018-03-29T12:46:40.316Z,57.58
2018-03-29T12:47:40.466Z,57.77
2018-03-29T12:48:40.667Z,58.15
2018-03-29T12:49:40.837Z,58.75
2018-03-29T12:50:41.008Z,58.18
2018-03-29T12:51:41.167Z,57.64
2018-03-29T12:52:41.406Z,57.60
2018-03-29T12:53:41.531Z,57.64
2018-03-29T12:54:41.697Z,57.73
2018-03-29T12:55:41.981Z,58.40
2018-03-29T12:56:42.048Z,58.40
2018-03-29T12:57:42.251Z,58.30
2018-03-29T12:58:42.385Z,58.11
2018-03-29T12:59:42.545Z,58.02
2018-03-29T13:00:42.739Z,57.73
2018-03-29T13:01:42.871Z,58.04
2018-03-29T13:02:43.053Z,58.21
2018-03-29T13:03:43.254Z,59.35
2018-03-29T13:04:43.388Z,58.87
2018-03-29T13:05:43.591Z,58.97
2018-03-29T13:06:43.771Z,58.65